Wetterdaten: aktuell Mittwoch, 21.11.2018 09:40
Datum Zeit Temp. A. Wasser Luftdruck Regen Wind Richtung Richtung Solar Taupunkt Windben
21.11.2018 09:40 0.8 C 7.8 C 1014.0 hPa 0.0 mm 4.9 kts (2 Bft) O-NO 66 25 W/m -0.8 C 7.8 kts (3 Bft)
21.11.2018 09:30 0.8 C 7.8 C 1013.8 hPa 0.0 mm 5.2 kts (2 Bft) O-NO 64 23 W/m -1.0 C 8.7 kts (3 Bft)
21.11.2018 09:20 0.9 C 7.8 C 1013.8 hPa 0.0 mm 4.3 kts (2 Bft) O-NO 69 16 W/m -0.7 C 7.0 kts (3 Bft)
21.11.2018 09:10 1.2 C 7.2 C 1013.7 hPa 0.0 mm 2.5 kts (1 Bft) NO 51 14 W/m -0.6 C 5.2 kts (2 Bft)
21.11.2018 09:00 1.2 C 7.2 C 1013.8 hPa 0.0 mm 1.9 kts (1 Bft) N 360 12 W/m -0.6 C 5.2 kts (2 Bft)
21.11.2018 08:50 1.2 C 7.2 C 1013.7 hPa 0.0 mm 2.5 kts (1 Bft) W-NW 294 11 W/m -0.6 C 5.2 kts (2 Bft)
21.11.2018 08:40 1.2 C 7.2 C 1013.6 hPa 0.0 mm 3.8 kts (2 Bft) W-SW 254 9 W/m -0.4 C 5.2 kts (2 Bft)
21.11.2018 08:30 1.1 C 7.2 C 1013.3 hPa 0.0 mm 4.2 kts (2 Bft) W 272 9 W/m -0.5 C 5.2 kts (2 Bft)
21.11.2018 08:20 1.1 C 7.2 C 1013.1 hPa 0.0 mm 3.8 kts (2 Bft) W 265 7 W/m -0.4 C 5.2 kts (2 Bft)
21.11.2018 08:10 1.0 C 7.8 C 1012.9 hPa 0.0 mm 3.5 kts (2 Bft) W-SW 254 0 W/m -0.5 C 5.2 kts (2 Bft)
21.11.2018 08:00 0.9 C 7.8 C 1012.9 hPa 0.0 mm 3.0 kts (1 Bft) W-SW 244 0 W/m -0.7 C 4.3 kts (2 Bft)
21.11.2018 07:50 0.9 C 7.8 C 1012.8 hPa 0.0 mm 3.1 kts (1 Bft) SW 232 0 W/m -0.7 C 4.3 kts (2 Bft)
21.11.2018 07:40 0.9 C 7.8 C 1012.7 hPa 0.0 mm 3.7 kts (2 Bft) W 261 0 W/m -0.6 C 5.2 kts (2 Bft)
21.11.2018 07:30 0.9 C 7.8 C 1012.6 hPa 0.0 mm 4.0 kts (2 Bft) W-SW 254 0 W/m -0.6 C 5.2 kts (2 Bft)
21.11.2018 07:20 0.8 C 7.8 C 1012.5 hPa 0.0 mm 3.8 kts (2 Bft) SW 231 0 W/m -0.6 C 5.2 kts (2 Bft)
21.11.2018 07:10 0.8 C 7.8 C 1012.4 hPa 0.0 mm 4.0 kts (2 Bft) W-SW 238 0 W/m -0.6 C 5.2 kts (2 Bft)
21.11.2018 07:00 0.9 C 7.8 C 1012.2 hPa 0.0 mm 4.2 kts (2 Bft) W-SW 246 0 W/m -0.6 C 6.1 kts (2 Bft)
21.11.2018 06:50 0.8 C 7.8 C 1012.1 hPa 0.0 mm 4.5 kts (2 Bft) W 271 0 W/m -0.6 C 6.1 kts (2 Bft)
21.11.2018 06:40 0.8 C 7.8 C 1012.0 hPa 0.0 mm 5.9 kts (2 Bft) W 273 0 W/m -0.6 C 9.6 kts (3 Bft)
21.11.2018 06:30 0.9 C 7.8 C 1012.0 hPa 0.0 mm 5.9 kts (2 Bft) W 281 0 W/m -0.6 C 9.6 kts (3 Bft)
21.11.2018 06:20 0.8 C 7.8 C 1011.8 hPa 0.0 mm 3.5 kts (2 Bft) W-SW 247 0 W/m -0.8 C 5.2 kts (2 Bft)
21.11.2018 06:10 0.8 C 7.8 C 1011.7 hPa 0.0 mm 3.6 kts (2 Bft) SW 235 0 W/m -0.8 C 5.2 kts (2 Bft)
21.11.2018 06:00 0.8 C 7.8 C 1011.6 hPa 0.0 mm 3.3 kts (2 Bft) W-SW 241 0 W/m -0.8 C 4.3 kts (2 Bft)
21.11.2018 05:50 0.9 C 7.8 C 1011.5 hPa 0.0 mm 2.9 kts (1 Bft) SW 231 0 W/m -0.9 C 4.3 kts (2 Bft)
21.11.2018 05:40 1.2 C 7.8 C 1011.4 hPa 0.0 mm 2.3 kts (1 Bft) W-SW 244 0 W/m -0.4 C 4.3 kts (2 Bft)
21.11.2018 05:30 1.1 C 7.8 C 1011.2 hPa 0.0 mm 0.6 kts (1 Bft) S 173 0 W/m -0.4 C 1.7 kts (1 Bft)
21.11.2018 05:20 0.9 C 7.8 C 1011.2 hPa 0.0 mm 1.6 kts (1 Bft) S 173 0 W/m -0.6 C 3.5 kts (2 Bft)
21.11.2018 05:10 0.8 C 7.8 C 1011.1 hPa 0.0 mm 3.7 kts (2 Bft) S-SO 167 0 W/m -0.6 C 6.1 kts (2 Bft)
21.11.2018 05:00 0.7 C 7.8 C 1011.0 hPa 0.0 mm 4.0 kts (2 Bft) SW 218 0 W/m -0.7 C 5.2 kts (2 Bft)
21.11.2018 04:50 0.8 C 7.8 C 1010.8 hPa 0.0 mm 3.3 kts (2 Bft) SW 229 0 W/m -0.6 C 4.3 kts (2 Bft)
21.11.2018 04:40 0.8 C 7.8 C 1010.6 hPa 0.0 mm 2.9 kts (1 Bft) SW 227 0 W/m -0.5 C 4.3 kts (2 Bft)
21.11.2018 04:30 0.6 C 7.8 C 1010.4 hPa 0.0 mm 2.9 kts (1 Bft) SW 224 0 W/m -0.7 C 4.3 kts (2 Bft)
21.11.2018 04:20 0.6 C 7.8 C 1010.2 hPa 0.0 mm 2.1 kts (1 Bft) W-SW 247 0 W/m -0.8 C 2.6 kts (1 Bft)
21.11.2018 04:10 0.6 C 7.8 C 1010.2 hPa 0.0 mm 2.4 kts (1 Bft) W 261 0 W/m -0.8 C 4.3 kts (2 Bft)
21.11.2018 04:00 0.6 C 7.8 C 1010.4 hPa 0.0 mm 3.9 kts (2 Bft) W-SW 256 0 W/m -0.8 C 5.2 kts (2 Bft)
21.11.2018 03:50 0.8 C 7.8 C 1010.2 hPa 0.0 mm 4.0 kts (2 Bft) W 265 0 W/m -0.6 C 5.2 kts (2 Bft)
21.11.2018 03:40 0.8 C 7.8 C 1010.1 hPa 0.0 mm 4.4 kts (2 Bft) W 269 0 W/m -0.8 C 5.2 kts (2 Bft)
21.11.2018 03:30 1.1 C 8.3 C 1010.2 hPa 0.0 mm 4.5 kts (2 Bft) W 265 0 W/m -0.5 C 6.1 kts (2 Bft)
21.11.2018 03:20 1.2 C 8.3 C 1010.0 hPa 0.0 mm 4.3 kts (2 Bft) W-NW 286 0 W/m -0.6 C 6.1 kts (2 Bft)
21.11.2018 03:10 1.6 C 8.3 C 1010.2 hPa 0.0 mm 4.0 kts (2 Bft) W-NW 286 0 W/m -0.3 C 5.2 kts (2 Bft)
21.11.2018 03:00 2.4 C 8.3 C 1010.1 hPa 0.0 mm 2.3 kts (1 Bft) W 279 0 W/m 0.1 C 4.3 kts (2 Bft)
21.11.2018 02:50 2.6 C 8.3 C 1009.9 hPa 0.0 mm 3.3 kts (2 Bft) O 88 0 W/m 0.2 C 6.1 kts (2 Bft)
21.11.2018 02:40 2.4 C 8.3 C 1009.8 hPa 0.0 mm 3.6 kts (2 Bft) O 79 0 W/m 0.1 C 5.2 kts (2 Bft)
21.11.2018 02:30 2.4 C 8.3 C 1009.8 hPa 0.0 mm 5.3 kts (2 Bft) O 99 0 W/m 0.1 C 9.6 kts (3 Bft)
21.11.2018 02:20 2.3 C 8.3 C 1009.8 hPa 0.0 mm 6.4 kts (2 Bft) O 86 0 W/m 0.2 C 8.7 kts (3 Bft)
21.11.2018 02:10 2.3 C 8.3 C 1009.8 hPa 0.0 mm 4.4 kts (2 Bft) O 91 0 W/m 0.2 C 7.8 kts (3 Bft)
21.11.2018 02:00 2.4 C 8.3 C 1009.7 hPa 0.0 mm 5.6 kts (2 Bft) O-NO 71 0 W/m 0.3 C 10.4 kts (3 Bft)
21.11.2018 01:50 2.6 C 8.3 C 1009.5 hPa 0.0 mm 9.3 kts (3 Bft) O-NO 65 0 W/m 0.7 C 12.1 kts (4 Bft)
21.11.2018 01:40 2.6 C 8.3 C 1009.3 hPa 0.0 mm 8.7 kts (3 Bft) O-NO 74 0 W/m 0.8 C 12.1 kts (4 Bft)
21.11.2018 01:30 2.3 C 8.3 C 1009.4 hPa 0.0 mm 9.1 kts (3 Bft) O-NO 59 0 W/m 0.5 C 10.4 kts (3 Bft)
21.11.2018 01:20 2.3 C 8.3 C 1009.5 hPa 0.0 mm 10.0 kts (3 Bft) NO 44 0 W/m 0.5 C 12.1 kts (4 Bft)
21.11.2018 01:10 2.0 C 8.3 C 1009.4 hPa 0.0 mm 10.4 kts (3 Bft) O-NO 71 0 W/m 0.1 C 12.1 kts (4 Bft)
21.11.2018 01:00 2.0 C 8.3 C 1009.6 hPa 0.0 mm 10.2 kts (3 Bft) O-NO 78 0 W/m -0.1 C 12.1 kts (4 Bft)
21.11.2018 00:50 2.1 C 8.3 C 1009.5 hPa 0.0 mm 10.0 kts (3 Bft) O-NO 65 0 W/m -0.2 C 12.1 kts (4 Bft)
21.11.2018 00:40 2.1 C 8.3 C 1009.6 hPa 0.0 mm 9.7 kts (3 Bft) O-NO 72 0 W/m 0.0 C 11.3 kts (4 Bft)
21.11.2018 00:30 2.3 C 8.3 C 1009.6 hPa 0.0 mm 8.5 kts (3 Bft) O-NO 63 0 W/m 0.5 C 10.4 kts (3 Bft)
21.11.2018 00:20 1.3 C 8.3 C 1009.8 hPa 0.0 mm 0.5 kts (0 Bft) O-NO 77 0 W/m -0.3 C 4.3 kts (2 Bft)
21.11.2018 00:10 1.3 C 8.3 C 1009.7 hPa 0.0 mm 1.5 kts (1 Bft) S-SW 211 0 W/m -0.5 C 2.6 kts (1 Bft)
21.11.2018 00:00 1.2 C 8.3 C 1009.8 hPa 0.0 mm 1.8 kts (1 Bft) W 264 0 W/m -0.4 C 2.6 kts (1 Bft)
20.11.2018 23:50 1.1 C 8.3 C 1009.9 hPa 0.0 mm 1.4 kts (1 Bft) W 270 0 W/m -0.5 C 2.6 kts (1 Bft)
20.11.2018 23:40 1.1 C 8.3 C 1009.9 hPa 0.0 mm 1.7 kts (1 Bft) W-SW 250 0 W/m -0.7 C 2.6 kts (1 Bft)
20.11.2018 23:30 1.3 C 8.3 C 1009.9 hPa 0.0 mm 2.2 kts (1 Bft) W 261 0 W/m -0.5 C 3.5 kts (2 Bft)
20.11.2018 23:20 1.2 C 8.3 C 1009.8 hPa 0.0 mm 2.4 kts (1 Bft) W-SW 248 0 W/m -0.7 C 3.5 kts (2 Bft)
20.11.2018 23:10 1.3 C 8.3 C 1009.7 hPa 0.0 mm 1.9 kts (1 Bft) W-SW 258 0 W/m -0.6 C 3.5 kts (2 Bft)
20.11.2018 23:00 1.4 C 8.3 C 1009.6 hPa 0.0 mm 2.8 kts (1 Bft) W-SW 246 0 W/m -0.5 C 4.3 kts (2 Bft)
20.11.2018 22:50 1.5 C 8.3 C 1009.4 hPa 0.0 mm 2.8 kts (1 Bft) W-SW 253 0 W/m -0.4 C 4.3 kts (2 Bft)
20.11.2018 22:40 1.4 C 8.3 C 1009.3 hPa 0.0 mm 3.0 kts (1 Bft) W-SW 258 0 W/m -0.5 C 4.3 kts (2 Bft)
20.11.2018 22:30 1.4 C 8.3 C 1009.3 hPa 0.0 mm 2.2 kts (1 Bft) W 261 0 W/m -0.5 C 3.5 kts (2 Bft)
20.11.2018 22:20 1.3 C 8.3 C 1009.3 hPa 0.0 mm 2.3 kts (1 Bft) W 265 0 W/m -0.8 C 3.5 kts (2 Bft)
20.11.2018 22:10 1.4 C 8.3 C 1009.3 hPa 0.0 mm 2.5 kts (1 Bft) W 269 0 W/m -0.5 C 3.5 kts (2 Bft)
20.11.2018 22:00 1.3 C 8.3 C 1009.3 hPa 0.0 mm 2.1 kts (1 Bft) W 273 0 W/m -0.6 C 2.6 kts (1 Bft)
20.11.2018 21:50 1.3 C 8.3 C 1009.3 hPa 0.0 mm 2.2 kts (1 Bft) W 260 0 W/m -0.6 C 3.5 kts (2 Bft)
20.11.2018 21:40 1.3 C 8.3 C 1009.2 hPa 0.0 mm 2.7 kts (1 Bft) W 272 0 W/m -0.6 C 3.5 kts (2 Bft)
_ Min-Zeit 19:30 10:00 10:00 - 00:20 - - - 19:30 05:30
Minimum _ 0.4 C 7.2 C 1005.4 hPa - 0.5 kts (0 Bft) - - - -1.8 C 1.7 kts (1 Bft)
_ Max-Zeit 16:40 11:30 09:40 10:00 01:10 - - 12:50 01:40 00:50
Maximum _ 2.8 C 8.3 C 1014.0 hPa 0.0 mm 10.4 kts
O-NO (3 Bft)
- - 109 W/m 0.8 C 12.1 kts
O-NO (4 Bft)
Durchschnitt _ 1.5 C 8.0 C 1008.7 hPa #0.0 mm 3.7 kts (2 Bft) W - 14 W/m -0.8 C 5.6 kts (2 Bft)